Latest Weather Observations for Evans Head

IDN60801

Issued at 5:35 pm EDT Sunday 26 October 2014 (issued every 30 minutes, with the page automatically refreshed every 10 minutes)

About weather observations | Map of weather stations | Latest weather observations for NSW | Other Formats
Station Details ID: 058212 Name: EVANS HEAD RAAF BOMBING RANGE AWS Lat: -29.18 Lon: 153.40 Height: 62.5 m
Data from the previous 72 hours. | See also: Recent months at Evans Head
Date/Time
EDT
Temp
°C
App
Temp
°C
Dew
Point
Rel
Hum
%
Delta-T
°C
Wind Press
QNH
hPa
Press
MSL
hPa
Rain
since 9 am
mm
Dir
 
Spd
km/h
Gust
km/h
Spd
kts
Gust
kts
26/05:30pm 25.0 23.5 19.4 71 3.6 N 26 39 14 21 1008.5 1008.3 0.0
26/05:00pm 25.9 25.0 19.8 69 4.0 N 24 37 13 20 1008.7 1008.5 0.0
26/04:30pm 26.5 26.2 19.6 66 4.5 N 20 33 11 18 1008.7 1008.5 0.0
26/04:00pm 27.6 26.7 19.9 63 5.0 N 24 37 13 20 1008.9 1008.7 0.0
26/03:30pm 29.7 29.9 20.5 57 6.1 N 20 30 11 16 1009.3 1009.1 0.0
26/03:00pm 29.0 28.9 19.9 58 6.0 NNE 20 32 11 17 1009.7 1009.5 0.0
26/02:30pm 29.1 28.8 19.1 54 6.5 NNE 19 30 10 16 1010.5 1010.3 0.0
26/02:00pm 30.5 31.2 20.4 54 6.7 NNE 17 28 9 15 1011.0 1010.8 0.0
26/01:30pm 30.3 30.7 19.9 53 6.9 NNE 17 24 9 13 1011.6 1011.4 0.0
26/01:00pm 30.3 30.4 19.9 53 6.9 NNE 19 28 10 15 1012.2 1012.0 0.0
26/12:30pm 31.1 32.2 20.4 53 7.1 NNE 15 24 8 13 1012.7 1012.5 0.0
26/12:00pm 30.2 30.7 19.2 51 7.2 NNE 15 24 8 13 1013.3 1013.0 0.0
26/11:30am 30.3 30.6 18.7 50 7.5 NNE 15 22 8 12 1013.9 1013.7 0.0
26/11:00am 30.4 32.1 18.5 49 7.7 N 7 15 4 8 1014.4 1014.2 0.0
26/10:30am 29.9 30.9 18.7 51 7.2 N 11 15 6 8 1014.6 1014.4 0.0
26/10:00am 28.0 28.8 19.0 58 5.8 N 13 19 7 10 1015.0 1014.8 0.0
26/09:30am 26.6 27.6 19.5 65 4.6 N 13 19 7 10 1015.2 1015.0 0.0
26/09:00am 24.3 27.1 19.6 75 3.0 N 4 9 2 5 1015.3 1015.1 0.0
26/08:30am 22.9 25.5 20.4 86 1.6 NNE 7 13 4 7 1015.0 1014.8 0.0
26/08:00am 21.2 25.1 20.4 95 0.5 CALM 0 0 0 0 1015.3 1015.1 0.0
26/07:30am 18.9 21.6 18.6 98 0.2 N 2 7 1 4 1015.4 1015.2 0.0
26/07:00am 17.8 18.7 17.6 99 0.1 N 9 13 5 7 1014.9 1014.7 0.0
26/06:30am 17.2 17.5 17.0 99 0.1 N 11 15 6 8 1014.7 1014.5 0.0
26/06:00am 16.8 17.3 16.6 99 0.1 N 9 13 5 7 1014.3 1014.1 0.0
26/05:30am 16.8 17.3 16.6 99 0.1 N 9 13 5 7 1014.1 1013.9 0.0
26/05:00am 17.2 17.1 16.9 98 0.2 N 13 17 7 9 1013.9 1013.7 0.0
26/04:30am 17.3 17.2 17.0 98 0.2 N 13 15 7 8 1014.1 1013.9 0.0
26/04:00am 17.6 17.6 17.3 98 0.2 N 13 15 7 8 1014.2 1014.0 0.0
26/03:30am 17.7 17.8 17.4 98 0.2 N 13 15 7 8 1014.3 1014.1 0.0
26/03:00am 17.6 17.6 17.3 98 0.2 N 13 17 7 9 1014.4 1014.2 0.0
26/02:30am 17.6 17.6 17.3 98 0.2 N 13 15 7 8 1014.7 1014.5 0.0
26/02:00am 18.2 18.9 17.9 98 0.2 N 11 15 6 8 1014.9 1014.7 0.0
26/01:30am 17.8 18.3 17.5 98 0.2 N 11 13 6 7 1015.3 1015.1 0.0
26/01:00am 19.0 20.7 18.5 97 0.3 NE 7 7 4 4 1015.7 1015.5 0.0
26/12:30am 19.1 22.2 18.6 97 0.3 CALM 0 0 0 0 1015.9 1015.7 0.0
26/12:00am 19.8 22.8 19.3 97 0.3 SE 2 6 1 3 1016.2 1016.0 0.0
 
Date/Time
EDT
Temp
°C
App
Temp
°C
Dew
Point
Rel
Hum
%
Delta-T
°C
Wind Press
QNH
hPa
Press
MSL
hPa
Rain
since 9 am
mm
Dir
 
Spd
km/h
Gust
km/h
Spd
kts
Gust
kts
25/11:30pm 19.9 22.6 19.4 97 0.3 S 4 6 2 3 1016.1 1015.9 0.0
25/11:00pm 19.8 21.9 19.3 97 0.3 S 7 9 4 5 1016.0 1015.8 0.0
25/10:30pm 20.1 21.5 18.6 91 0.9 SSW 9 11 5 6 1015.9 1015.7 0.0
25/10:00pm 20.3 23.6 19.0 92 0.8 CALM 0 0 0 0 1015.7 1015.5 0.0
25/09:30pm 19.5 22.4 19.0 97 0.3 N 2 7 1 4 1015.5 1015.3 0.0
25/09:00pm 19.4 20.8 18.6 95 0.5 N 9 13 5 7 1015.3 1015.1 0.0
25/08:30pm 19.8 20.1 17.9 89 1.2 N 13 17 7 9 1015.1 1014.9 0.0
25/08:00pm 20.7 20.4 18.3 86 1.5 N 17 22 9 12 1014.8 1014.6 0.0
25/07:30pm 21.0 20.8 18.4 85 1.6 N 17 24 9 13 1014.5 1014.3 0.0
25/07:00pm 21.2 20.6 18.4 84 1.8 N 19 28 10 15 1014.3 1014.1 0.0
25/06:30pm 21.4 20.7 18.2 82 2.0 N 19 28 10 15 1014.1 1013.9 0.0
25/06:00pm 22.4 21.4 18.0 76 2.7 N 20 33 11 18 1013.9 1013.7 0.0
25/05:30pm 22.9 22.0 18.2 75 2.9 N 20 30 11 16 1013.7 1013.5 0.0
25/05:00pm 22.0 20.9 17.8 77 2.6 N 20 32 11 17 1013.4 1013.1 0.0
25/04:30pm 23.4 22.3 17.4 69 3.7 NNE 19 28 10 15 1012.9 1012.7 0.0
25/04:00pm 27.2 26.3 18.2 58 5.7 NNE 20 37 11 20 1012.6 1012.4 0.0
25/03:30pm 27.3 25.8 17.8 56 6.0 NNE 22 39 12 21 1012.8 1012.6 0.0
25/03:00pm 29.3 28.1 17.5 49 7.5 NNE 20 30 11 16 1013.0 1012.8 0.0
25/02:30pm 29.3 27.7 17.5 49 7.5 NNE 22 32 12 17 1013.4 1013.1 0.0
25/02:00pm 29.8 28.6 17.6 48 7.8 N 20 32 11 17 1013.9 1013.7 0.0
25/01:30pm 30.1 28.9 17.5 46 8.0 NNE 20 30 11 16 1014.3 1014.1 0.0
25/01:00pm 30.0 28.2 17.8 48 7.8 N 24 33 13 18 1014.8 1014.6 0.0
25/12:30pm 31.5 30.4 17.4 43 9.0 N 19 30 10 16 1015.2 1015.0 0.0
25/12:00pm 32.3 30.9 16.6 39 9.9 N 19 28 10 15 1015.9 1015.7 0.0
25/11:30am 31.0 29.7 17.3 43 8.7 N 20 32 11 17 1016.4 1016.2 0.0
25/11:00am 29.4 27.3 16.2 44 8.2 NNW 22 35 12 19 1017.0 1016.8 0.0
25/10:30am 28.7 27.1 16.6 48 7.6 NNW 20 35 11 19 1017.3 1017.1 0.0
25/10:00am 26.9 25.3 16.5 53 6.4 NNW 20 32 11 17 1017.8 1017.6 0.0
25/09:30am 25.0 23.4 15.9 57 5.6 N 19 28 10 15 1018.0 1017.8 0.0
25/09:00am 23.1 21.4 15.7 63 4.5 N 19 24 10 13 1018.2 1018.0 0.0
25/08:30am 22.0 22.0 17.2 74 3.0 N 13 19 7 10 1018.5 1018.3 0.0
25/08:00am 20.1 20.2 17.5 85 1.6 N 13 20 7 11 1018.4 1018.2 0.0
25/07:30am 17.2 17.4 16.7 97 0.3 N 11 15 6 8 1018.6 1018.4 0.0
25/07:00am 16.1 18.0 15.8 98 0.2 CALM 0 6 0 3 1018.7 1018.5 0.0
25/06:30am 15.6 15.2 15.3 98 0.2 N 11 13 6 7 1018.3 1018.1 0.0
25/06:00am 15.0 14.8 14.7 98 0.2 N 9 11 5 6 1017.8 1017.6 0.0
25/05:30am 15.1 15.3 14.8 98 0.2 N 7 9 4 5 1017.6 1017.4 0.0
25/05:00am 15.6 15.6 15.3 98 0.2 N 9 13 5 7 1017.3 1017.1 0.0
25/04:30am 15.7 14.6 15.4 98 0.2 N 15 22 8 12 1016.9 1016.7 0.0
25/04:00am 15.5 15.4 15.0 97 0.3 N 9 13 5 7 1017.2 1017.0 0.0
25/03:30am 15.6 15.6 15.1 97 0.3 N 9 13 5 7 1017.4 1017.2 0.0
25/03:00am 16.0 16.1 15.5 97 0.3 NNW 9 11 5 6 1017.7 1017.5 0.0
25/02:30am 16.3 16.1 15.8 97 0.3 N 11 13 6 7 1017.8 1017.6 0.0
25/02:00am 16.8 17.2 16.2 96 0.4 N 9 13 5 7 1018.3 1018.1 0.0
25/01:30am 17.3 16.7 16.7 96 0.4 N 15 24 8 13 1018.4 1018.2 0.0
25/01:00am 17.3 17.5 16.7 96 0.4 N 11 17 6 9 1019.0 1018.8 0.0
25/12:30am 17.8 17.0 17.2 96 0.4 N 17 26 9 14 1019.2 1019.0 0.0
25/12:00am 17.8 16.7 17.2 96 0.4 NNE 19 28 10 15 1019.2 1019.0 0.0
 
Date/Time
EDT
Temp
°C
App
Temp
°C
Dew
Point
Rel
Hum
%
Delta-T
°C
Wind Press
QNH
hPa
Press
MSL
hPa
Rain
since 9 am
mm
Dir
 
Spd
km/h
Gust
km/h
Spd
kts
Gust
kts
24/11:30pm 18.1 17.3 17.1 94 0.6 N 17 22 9 12 1020.3 1020.1 0.0
24/11:00pm 18.4 17.5 16.9 91 0.9 N 17 26 9 14 1020.5 1020.3 0.0
24/10:30pm 18.8 17.5 16.8 88 1.2 N 19 32 10 17 1020.6 1020.4 0.0
24/10:00pm 19.0 17.1 16.8 87 1.3 N 22 35 12 19 1020.3 1020.1 0.0
24/09:30pm 19.2 17.5 17.2 88 1.2 NNE 22 30 12 16 1020.4 1020.2 0.0
24/09:00pm 19.3 16.8 17.1 87 1.3 NNE 26 41 14 22 1020.3 1020.1 0.0
24/08:30pm 19.5 16.9 16.9 85 1.6 NNE 26 37 14 20 1019.9 1019.7 0.0
24/08:00pm 19.4 17.2 16.8 85 1.6 N 24 35 13 19 1019.7 1019.5 0.0
24/07:30pm 19.7 17.0 16.7 83 1.8 N 26 39 14 21 1019.6 1019.4 0.0
24/07:00pm 19.8 17.0 16.3 80 2.1 NNE 26 37 14 20 1019.5 1019.3 0.0
24/06:30pm 20.2 17.7 16.2 78 2.4 NNE 24 35 13 19 1019.3 1019.1 0.0
24/06:00pm 21.0 17.7 16.0 73 3.0 NNE 28 44 15 24 1019.2 1019.0 0.0
24/05:30pm 21.7 19.1 16.0 70 3.4 NNE 24 43 13 23 1019.0 1018.8 0.0
24/05:00pm 22.5 19.8 16.5 69 3.7 NNE 26 44 14 24 1018.8 1018.6 0.0
24/04:30pm 22.9 19.7 16.2 66 4.1 NNE 28 48 15 26 1018.9 1018.7 0.0
24/04:10pm 23.4 20.2 16.2 64 4.4 NE 28 48 15 26 1019.0 1018.8 0.0
24/04:00pm 24.3 22.3 17.3 65 4.3 NNE 24 41 13 22 1019.0 1018.8 0.0
24/03:30pm 24.4 22.1 16.6 61 4.8 NNE 24 43 13 23 1019.3 1019.1 0.0
24/03:07pm 24.1 20.9 16.4 62 4.7 NNE 28 48 15 26 1019.5 1019.3 0.0
24/03:00pm 23.9 21.0 16.2 62 4.7 NNE 26 44 14 24 1019.6 1019.4 0.0
24/02:30pm 24.2 21.2 15.9 59 5.0 NE 26 41 14 22 1020.0 1019.8 0.0
24/02:00pm 25.4 23.4 15.4 54 6.0 NNE 20 39 11 21 1020.2 1020.0 0.0
24/01:30pm 26.1 24.1 16.4 55 6.0 NNE 22 35 12 19 1020.5 1020.3 0.0
24/01:00pm 25.4 23.1 15.7 55 5.9 NNE 22 33 12 18 1020.9 1020.7 0.0
24/12:30pm 26.2 24.2 15.6 52 6.5 NNE 20 35 11 19 1021.1 1020.9 0.0
24/12:00pm 25.5 23.6 15.2 53 6.2 NE 19 30 10 16 1021.4 1021.2 0.0
24/11:30am 24.7 22.7 15.6 57 5.5 E 20 30 11 16 1021.7 1021.5 0.0
24/11:00am 23.6 21.5 15.1 59 5.1 E 20 28 11 15 1021.9 1021.7 0.0
24/10:30am 25.7 25.9 15.7 54 6.1 NNW 9 17 5 9 1022.0 1021.8 0.0
24/10:00am 24.8 24.6 15.7 57 5.5 N 11 17 6 9 1022.4 1022.2 0.0
24/09:30am 24.2 25.0 15.9 59 5.0 N 6 13 3 7 1022.4 1022.2 0.0
24/09:00am 22.1 22.1 14.2 61 4.6 N 7 11 4 6 1022.4 1022.2 0.0
24/08:30am 21.2 21.6 15.3 69 3.5 N 7 13 4 7 1022.3 1022.1 0.0
24/08:00am 19.7 20.4 15.6 77 2.4 N 6 9 3 5 1022.1 1021.9 0.0
24/07:30am 17.7 17.7 15.3 86 1.4 N 9 11 5 6 1021.9 1021.7 0.0
24/07:00am 16.0 16.1 15.5 97 0.3 NNW 9 11 5 6 1021.9 1021.7 0.0
24/06:30am 14.8 14.1 14.3 97 0.3 N 11 13 6 7 1021.3 1021.1 0.0
24/06:00am 14.4 13.6 13.9 97 0.3 N 11 13 6 7 1021.0 1020.8 0.0
24/05:30am 14.9 13.8 14.4 97 0.3 N 13 19 7 10 1020.5 1020.3 0.0
24/05:00am 14.9 14.2 14.4 97 0.3 N 11 13 6 7 1020.5 1020.3 0.0
24/04:30am 15.6 14.0 15.1 97 0.3 N 17 22 9 12 1019.9 1019.7 0.0
24/04:00am 15.6 14.8 15.1 97 0.3 N 13 20 7 11 1020.1 1019.9 0.0
24/03:30am 15.9 14.8 15.3 96 0.3 N 15 20 8 11 1020.0 1019.8 0.0
24/03:00am 15.8 14.7 15.3 97 0.3 N 15 20 8 11 1019.9 1019.7 0.0
24/02:30am 15.7 14.9 15.1 96 0.3 N 13 17 7 9 1020.2 1020.0 0.0
24/02:00am 16.1 14.9 15.1 94 0.6 N 15 19 8 10 1020.2 1020.0 0.0
24/01:30am 15.9 15.0 14.9 94 0.6 N 13 19 7 10 1020.6 1020.4 0.0
24/01:00am 16.1 15.5 14.6 91 0.9 N 11 13 6 7 1020.9 1020.7 0.0
24/12:30am 16.9 15.9 14.7 87 1.3 N 13 20 7 11 1021.0 1020.8 0.0
24/12:00am 17.2 15.6 15.0 87 1.3 N 17 24 9 13 1020.8 1020.6 0.0
 
Date/Time
EDT
Temp
°C
App
Temp
°C
Dew
Point
Rel
Hum
%
Delta-T
°C
Wind Press
QNH
hPa
Press
MSL
hPa
Rain
since 9 am
mm
Dir
 
Spd
km/h
Gust
km/h
Spd
kts
Gust
kts
23/11:30pm 17.4 15.5 15.2 87 1.3 N 19 26 10 14 1020.8 1020.6 0.0
23/11:00pm 17.6 15.9 15.8 89 1.1 N 19 26 10 14 1020.7 1020.5 0.0
23/10:30pm 17.4 16.2 16.1 92 0.8 N 17 24 9 13 1020.6 1020.4 0.0
23/10:00pm 17.5 16.5 15.5 88 1.2 N 15 19 8 10 1020.6 1020.4 0.0
23/09:30pm 17.5 16.7 15.1 86 1.4 N 13 17 7 9 1020.6 1020.4 0.0
23/09:00pm 18.0 17.4 14.5 80 2.0 NNE 11 17 6 9 1020.1 1019.9 0.0
23/08:30pm 18.4 17.4 14.7 79 2.2 N 13 19 7 10 1019.9 1019.7 0.0
23/08:00pm 19.1 17.9 15.0 77 2.4 N 15 24 8 13 1019.5 1019.3 0.0
23/07:30pm 19.4 17.5 15.3 77 2.4 N 19 28 10 15 1019.0 1018.8 0.0
23/07:00pm 19.6 17.7 15.3 76 2.5 N 19 26 10 14 1019.0 1018.8 0.0
23/06:30pm 19.8 17.9 15.2 75 2.7 N 19 28 10 15 1018.6 1018.4 0.0
23/06:00pm 20.0 17.9 14.8 72 3.0 NNE 19 26 10 14 1018.2 1018.0 0.0

Other Formats:

Comma delimited format used in spreadsheet applications
http://www.bom.gov.au/fwo/IDN60801/IDN60801.94598.axf

JavaScript Object Notation format (JSON) in row-major order
http://www.bom.gov.au/fwo/IDN60801/IDN60801.94598.json